Truth Or Consequences Municipal Airport
KTCS : rendu visible

Aérodrome :











RETROUVEZ-NOUS SUR...

 
LOGIN :

S'inscrire | Disclaimer

   EN    FR    IT 

 









Légende :    VFR   VFR Marginal   IFR   IFR Intensif   IFR Très Intensif
Visi : 
Plafond : 
>= 8 km
>= 3000ft
5 à 8 km
1000 à 3000 ft
1500m à 5 km
500 à 1000 ft
800 à 1500m
200 à 500 ft
< 800m
< 200 ft
Symboles :   Orages  Brouillard  Fortes neiges  Fortes précipitations  Vent > 20 kt






- Altitude de l'aérodrome : 4853 ft


KTCS - Truth Or Consequences Municipal

DERNIER METAR :
  • 141353Z AUTO 01007KT 10SM CLR 07/M08 A3022 RMK AO2 SLP202 T00671078

METARs EXPIRÉS :
  • 141253Z AUTO 34007KT 10SM CLR 06/M07 A3020 RMK AO2 SLP191 T00561072
  • 141153Z AUTO 35005KT 10SM CLR 07/M07 A3018 RMK AO2 SLP178 T00721072 10083 20050 53013

TAF KTCS
Valide du 14 à 12h jusqu'au 15 à 12h UTC


141122Z 1412/1512 31006KT P6SM SKC
FM141600 03007KT P6SM SKC
FM141900 13007KT P6SM FEW250



MET'MAP, la Météo Aéronautique d'un coup d'oeil ! - Copyright ORBIFLY Décembre 2007 - Disclaimer

ORBIFLY MET'MAP TEAM :

Programmation & Développement : Alexandra Zaïnal
Conception & Développement : Baudouin d'Aumeries
Co-Programmation & Développement : Marc-Olivier Méhu
Soutien technique & logistique : Manuel Goepfert

Contact : metmap@orbifly.com




SOURCES & CREDITS :

   NOAA       Earth
Advisory